createdAt,value
2023-06-26T00:00:24.442Z,24.32
2023-06-26T00:02:27.284Z,24.32
2023-06-26T00:04:29.931Z,24.34
2023-06-26T00:06:32.570Z,24.33
2023-06-26T00:08:35.196Z,24.30
2023-06-26T00:10:39.758Z,24.29
2023-06-26T00:12:42.659Z,24.26
2023-06-26T00:14:45.266Z,24.24
2023-06-26T00:16:47.921Z,24.22
2023-06-26T00:18:50.522Z,24.20
2023-06-26T00:20:53.149Z,24.18
2023-06-26T00:22:59.865Z,24.16
2023-06-26T00:25:03.736Z,24.12
2023-06-26T00:27:08.191Z,24.09
2023-06-26T00:29:10.949Z,24.07
2023-06-26T00:31:13.611Z,24.06
2023-06-26T00:33:16.580Z,24.03
2023-06-26T00:35:19.291Z,24.00
2023-06-26T00:37:23.070Z,23.96
2023-06-26T00:39:26.847Z,23.91
2023-06-26T00:41:29.618Z,23.88
2023-06-26T00:43:33.587Z,23.86
2023-06-26T00:45:43.203Z,23.83
2023-06-26T00:47:46.658Z,23.82
2023-06-26T00:49:49.569Z,23.78
2023-06-26T00:51:52.430Z,23.78
2023-06-26T00:53:55.195Z,23.75
2023-06-26T00:55:57.936Z,23.74
2023-06-26T00:58:00.645Z,23.73
2023-06-26T01:00:06.496Z,23.69
2023-06-26T01:02:10.820Z,23.66
2023-06-26T01:04:18.823Z,23.66
2023-06-26T01:06:23.842Z,23.62
2023-06-26T01:08:27.449Z,23.60
2023-06-26T01:10:30.370Z,23.58
2023-06-26T01:12:33.906Z,23.55
2023-06-26T01:14:37.182Z,23.53
2023-06-26T01:16:42.974Z,23.51
2023-06-26T01:18:46.640Z,23.48
2023-06-26T01:20:50.203Z,23.46
2023-06-26T01:23:07.710Z,23.42
2023-06-26T01:25:18.917Z,23.39
2023-06-26T01:27:24.763Z,23.33
2023-06-26T01:29:28.102Z,23.28
2023-06-26T01:31:32.421Z,23.26
2023-06-26T01:33:35.408Z,23.23
2023-06-26T01:35:38.891Z,23.19
2023-06-26T01:37:41.660Z,23.19
2023-06-26T01:39:44.259Z,23.18
2023-06-26T01:41:47.471Z,23.15
2023-06-26T01:44:06.210Z,23.13
2023-06-26T01:46:13.621Z,23.12
2023-06-26T01:48:22.630Z,23.07
2023-06-26T01:50:28.651Z,23.04
2023-06-26T01:52:42.756Z,23.02
2023-06-26T01:54:54.881Z,22.99
2023-06-26T01:56:58.789Z,22.96
2023-06-26T01:59:06.861Z,22.95
2023-06-26T02:01:09.640Z,22.93
2023-06-26T02:03:12.406Z,22.93
2023-06-26T02:05:15.821Z,22.91
2023-06-26T02:07:18.596Z,22.90
2023-06-26T02:09:21.240Z,22.90
2023-06-26T02:11:23.908Z,22.89
2023-06-26T02:13:26.539Z,22.86
2023-06-26T02:15:30.519Z,22.81
2023-06-26T02:17:33.273Z,22.82
2023-06-26T02:19:35.902Z,22.83
2023-06-26T02:21:39.567Z,22.81
2023-06-26T02:23:42.293Z,22.81
2023-06-26T02:25:44.942Z,22.81
2023-06-26T02:27:47.567Z,22.79
2023-06-26T02:29:50.219Z,22.77
2023-06-26T02:31:54.190Z,22.75
2023-06-26T02:33:56.827Z,22.73
2023-06-26T02:35:59.516Z,22.71
2023-06-26T02:38:02.181Z,22.70
2023-06-26T02:40:06.131Z,22.66
2023-06-26T02:42:08.793Z,22.61
2023-06-26T02:44:12.714Z,22.54
2023-06-26T02:46:15.453Z,22.53
2023-06-26T02:48:19.463Z,22.52
2023-06-26T02:50:22.071Z,22.50
2023-06-26T02:52:24.729Z,22.47
2023-06-26T02:54:27.387Z,22.44
2023-06-26T02:56:30.432Z,22.41
2023-06-26T02:58:33.088Z,22.39
2023-06-26T03:00:35.740Z,22.35
2023-06-26T03:02:38.460Z,22.34
2023-06-26T03:04:44.266Z,22.32
2023-06-26T03:06:47.009Z,22.32
2023-06-26T03:08:49.660Z,22.33
2023-06-26T03:10:52.286Z,22.32
2023-06-26T03:12:54.888Z,22.31
2023-06-26T03:14:57.512Z,22.29
2023-06-26T03:17:04.352Z,22.28
2023-06-26T03:19:07.123Z,22.25
2023-06-26T03:21:13.428Z,22.24
2023-06-26T03:23:16.260Z,22.21
2023-06-26T03:25:18.992Z,22.21
2023-06-26T03:27:21.619Z,22.17
2023-06-26T03:29:24.230Z,22.16
2023-06-26T03:31:26.888Z,22.14
2023-06-26T03:33:29.566Z,22.10
2023-06-26T03:35:32.240Z,22.08
2023-06-26T03:37:36.151Z,22.07
2023-06-26T03:39:38.829Z,22.05
2023-06-26T03:41:41.453Z,22.01
2023-06-26T03:43:44.090Z,21.98
2023-06-26T03:45:47.634Z,21.96
2023-06-26T03:47:50.945Z,21.92
2023-06-26T03:49:53.598Z,21.91
2023-06-26T03:51:56.324Z,21.88
2023-06-26T03:54:00.329Z,21.84
2023-06-26T03:56:03.086Z,21.82
2023-06-26T03:58:05.951Z,21.82
2023-06-26T04:00:10.168Z,21.78
2023-06-26T04:02:13.912Z,21.79
2023-06-26T04:04:16.807Z,21.80
2023-06-26T04:06:19.670Z,21.80
2023-06-26T04:08:22.322Z,21.84
2023-06-26T04:10:26.322Z,21.86
2023-06-26T04:12:29.367Z,21.87
2023-06-26T04:14:32.057Z,21.85
2023-06-26T04:16:34.634Z,21.86
2023-06-26T04:18:37.194Z,21.83
2023-06-26T04:20:41.759Z,21.79
2023-06-26T04:22:44.390Z,21.82
2023-06-26T04:24:47.256Z,21.84
2023-06-26T04:26:51.191Z,21.88
2023-06-26T04:28:53.795Z,21.87
2023-06-26T04:30:56.453Z,21.90
2023-06-26T04:33:00.119Z,21.93
2023-06-26T04:35:04.091Z,21.96
2023-06-26T04:37:06.812Z,21.96
2023-06-26T04:39:09.462Z,21.99
2023-06-26T04:41:12.157Z,22.01
2023-06-26T04:43:16.242Z,21.96
2023-06-26T04:45:19.628Z,22.01
2023-06-26T04:47:22.254Z,22.01
2023-06-26T04:49:25.264Z,22.02
2023-06-26T04:51:29.932Z,22.05
2023-06-26T04:53:32.706Z,22.07
2023-06-26T04:55:35.949Z,22.06
2023-06-26T04:57:40.006Z,22.07
2023-06-26T04:59:43.965Z,22.09
2023-06-26T05:01:49.114Z,22.10
2023-06-26T05:03:51.946Z,22.11
2023-06-26T05:05:55.026Z,22.21
2023-06-26T05:07:58.111Z,22.23
2023-06-26T05:10:00.736Z,22.26
2023-06-26T05:12:04.118Z,22.28
2023-06-26T05:14:08.233Z,22.27
2023-06-26T05:16:12.309Z,22.25
2023-06-26T05:18:14.954Z,22.25
2023-06-26T05:20:17.735Z,22.26
2023-06-26T05:22:21.608Z,22.26
2023-06-26T05:24:25.239Z,22.34
2023-06-26T05:26:28.513Z,22.31
2023-06-26T05:28:32.348Z,22.39
2023-06-26T05:30:36.790Z,22.38
2023-06-26T05:32:42.507Z,22.38
2023-06-26T05:34:46.372Z,22.43
2023-06-26T05:36:52.564Z,22.41
2023-06-26T05:38:57.510Z,22.42
2023-06-26T05:41:00.741Z,22.42
2023-06-26T05:43:04.136Z,22.44
2023-06-26T05:45:07.642Z,22.49
2023-06-26T05:47:10.559Z,22.48
2023-06-26T05:49:15.451Z,22.53
2023-06-26T05:51:18.753Z,22.53
2023-06-26T05:53:22.094Z,22.50
2023-06-26T05:55:25.700Z,22.53
2023-06-26T05:57:29.917Z,22.55
2023-06-26T05:59:34.207Z,22.58
2023-06-26T06:01:37.650Z,22.54
2023-06-26T06:03:41.004Z,22.57
2023-06-26T06:05:45.097Z,22.62
2023-06-26T06:07:47.899Z,22.64
2023-06-26T06:09:50.548Z,22.69
2023-06-26T06:11:53.162Z,22.71
2023-06-26T06:13:55.748Z,22.76
2023-06-26T06:15:58.619Z,22.77
2023-06-26T06:18:01.405Z,22.82
2023-06-26T06:20:05.011Z,22.87
2023-06-26T06:22:08.969Z,22.90
2023-06-26T06:24:12.030Z,22.95
2023-06-26T06:26:14.682Z,22.98
2023-06-26T06:28:18.311Z,22.95
2023-06-26T06:30:39.245Z,22.99
2023-06-26T06:32:46.566Z,23.01
2023-06-26T06:34:49.209Z,22.99
2023-06-26T06:36:51.987Z,23.01
2023-06-26T06:38:56.062Z,23.03
2023-06-26T06:40:58.680Z,23.11
2023-06-26T06:43:01.308Z,23.10
2023-06-26T06:45:04.582Z,23.15
2023-06-26T06:47:07.416Z,23.17
2023-06-26T06:49:10.352Z,23.21
2023-06-26T06:51:12.919Z,23.26
2023-06-26T06:53:15.606Z,23.31
2023-06-26T06:55:19.745Z,23.42
2023-06-26T06:57:22.717Z,23.44
2023-06-26T06:59:25.343Z,23.47
2023-06-26T07:01:27.938Z,23.50
2023-06-26T07:03:30.630Z,23.53
2023-06-26T07:05:33.317Z,23.55
2023-06-26T07:07:37.048Z,23.58
2023-06-26T07:09:40.171Z,23.62
2023-06-26T07:11:44.123Z,23.69
2023-06-26T07:13:46.797Z,23.70
2023-06-26T07:15:49.842Z,23.74
2023-06-26T07:17:52.619Z,23.75
2023-06-26T07:19:55.194Z,23.83
2023-06-26T07:21:57.819Z,23.87
2023-06-26T07:24:00.460Z,23.88
2023-06-26T07:26:03.087Z,23.96
2023-06-26T07:28:12.697Z,24.05
2023-06-26T07:30:15.308Z,24.05
2023-06-26T07:32:18.072Z,24.07
2023-06-26T07:34:20.785Z,24.15
2023-06-26T07:36:23.978Z,24.15
2023-06-26T07:38:26.589Z,24.26
2023-06-26T07:40:29.298Z,24.24
2023-06-26T07:42:31.948Z,24.23
2023-06-26T07:44:35.929Z,24.24
2023-06-26T07:46:55.239Z,24.34
2023-06-26T07:49:07.529Z,24.34
2023-06-26T07:51:14.561Z,24.39
2023-06-26T07:53:36.113Z,24.43
2023-06-26T07:56:00.728Z,24.45
2023-06-26T07:58:12.024Z,24.53
2023-06-26T08:00:21.672Z,24.59
2023-06-26T08:05:04.515Z,24.59
2023-06-26T08:09:44.738Z,24.62
2023-06-26T08:14:24.476Z,24.68
2023-06-26T08:16:30.578Z,24.71
2023-06-26T08:18:36.302Z,24.77
2023-06-26T08:20:41.551Z,24.77
2023-06-26T08:22:44.806Z,24.78
2023-06-26T08:24:48.166Z,24.80
2023-06-26T08:26:51.601Z,24.96
2023-06-26T08:28:58.358Z,24.92
2023-06-26T08:31:02.941Z,24.95
2023-06-26T08:33:11.752Z,25.01
2023-06-26T08:35:17.065Z,25.05
2023-06-26T08:37:20.317Z,25.19
2023-06-26T08:39:23.057Z,25.14
2023-06-26T08:41:27.801Z,25.16
2023-06-26T08:43:31.515Z,25.27
2023-06-26T08:45:40.403Z,25.25
2023-06-26T08:47:46.616Z,25.29
2023-06-26T08:50:04.171Z,25.38
2023-06-26T08:52:15.637Z,25.53
2023-06-26T08:54:19.358Z,25.42
2023-06-26T08:56:24.108Z,25.52
2023-06-26T08:58:26.838Z,25.53
2023-06-26T09:00:38.726Z,25.53
2023-06-26T09:02:46.817Z,25.56
2023-06-26T09:04:51.361Z,25.55
2023-06-26T09:07:04.438Z,25.60
2023-06-26T09:09:08.778Z,25.66
2023-06-26T09:11:12.994Z,25.67
2023-06-26T09:13:35.367Z,25.66
2023-06-26T09:15:53.161Z,25.73
2023-06-26T09:18:04.808Z,25.75
2023-06-26T09:20:12.536Z,25.73
2023-06-26T09:22:28.032Z,25.81
2023-06-26T09:24:35.434Z,25.81
2023-06-26T09:26:41.889Z,25.85
2023-06-26T09:28:52.611Z,25.90
2023-06-26T09:31:08.993Z,25.95
2023-06-26T09:33:17.515Z,26.01
2023-06-26T09:35:43.021Z,26.10
2023-06-26T09:38:09.099Z,26.11
2023-06-26T09:40:16.665Z,26.15
2023-06-26T09:42:38.977Z,26.23
2023-06-26T09:45:03.413Z,26.25
2023-06-26T09:47:16.911Z,26.42
2023-06-26T09:49:20.898Z,26.38
2023-06-26T09:51:24.986Z,26.46
2023-06-26T09:53:30.294Z,26.52
2023-06-26T09:55:36.978Z,26.60
2023-06-26T09:57:40.440Z,26.60
2023-06-26T09:59:45.569Z,26.65
2023-06-26T10:01:48.641Z,26.61
2023-06-26T10:03:51.619Z,26.59
2023-06-26T10:05:55.688Z,26.62
2023-06-26T10:07:58.943Z,26.70
2023-06-26T10:10:04.890Z,26.89
2023-06-26T10:12:13.176Z,26.96
2023-06-26T10:14:18.414Z,27.02
2023-06-26T10:16:27.859Z,27.03
2023-06-26T10:18:33.747Z,27.13
2023-06-26T10:20:36.761Z,27.29
2023-06-26T10:22:44.861Z,27.26
2023-06-26T10:24:49.628Z,27.25
2023-06-26T10:26:59.669Z,27.29
2023-06-26T10:29:03.931Z,27.29
2023-06-26T10:31:10.245Z,27.33
2023-06-26T10:33:14.540Z,27.29
2023-06-26T10:35:17.505Z,27.24
2023-06-26T10:37:20.203Z,27.57
2023-06-26T10:39:22.954Z,27.48
2023-06-26T10:41:26.995Z,27.41
2023-06-26T10:43:33.066Z,27.37
2023-06-26T10:45:36.309Z,27.44
2023-06-26T10:47:40.698Z,27.45
2023-06-26T10:49:58.165Z,27.50
2023-06-26T10:52:13.736Z,27.57
2023-06-26T10:54:17.518Z,27.71
2023-06-26T10:56:20.202Z,27.53
2023-06-26T10:58:30.345Z,27.50
2023-06-26T11:00:34.454Z,27.49
2023-06-26T11:02:50.066Z,27.53
2023-06-26T11:05:02.059Z,27.68
2023-06-26T11:07:21.170Z,27.61
2023-06-26T11:09:28.408Z,27.64
2023-06-26T11:12:03.028Z,27.74
2023-06-26T11:14:06.641Z,27.61
2023-06-26T11:16:11.003Z,27.64
2023-06-26T11:18:14.467Z,27.61
2023-06-26T11:20:18.949Z,27.62
2023-06-26T11:22:22.150Z,27.76
2023-06-26T11:24:26.108Z,27.77
2023-06-26T11:26:28.917Z,27.85
2023-06-26T11:28:31.740Z,27.87
2023-06-26T11:30:34.507Z,27.94
2023-06-26T11:32:38.843Z,27.97
2023-06-26T11:34:43.794Z,27.99
2023-06-26T11:36:47.676Z,27.97
2023-06-26T11:38:55.162Z,27.99
2023-06-26T11:40:58.262Z,28.04
2023-06-26T11:43:01.943Z,28.26
2023-06-26T11:45:04.658Z,28.36
2023-06-26T11:47:08.016Z,28.36
2023-06-26T11:49:12.656Z,28.39
2023-06-26T11:51:16.073Z,28.40
2023-06-26T11:53:18.811Z,28.40
2023-06-26T11:55:21.466Z,28.42
2023-06-26T11:57:24.085Z,28.53
2023-06-26T11:59:35.117Z,28.50
2023-06-26T12:01:39.703Z,28.51
2023-06-26T12:03:42.575Z,28.50
2023-06-26T12:05:47.017Z,28.50
2023-06-26T12:07:51.386Z,28.51
2023-06-26T12:09:54.666Z,28.54
2023-06-26T12:11:58.752Z,28.54
2023-06-26T12:14:02.752Z,28.69
2023-06-26T12:16:05.997Z,28.66
2023-06-26T12:18:11.610Z,28.71
2023-06-26T12:20:21.129Z,28.92
2023-06-26T12:22:25.168Z,29.21
2023-06-26T12:24:28.608Z,29.10
2023-06-26T12:26:31.580Z,29.10
2023-06-26T12:28:39.039Z,29.12
2023-06-26T12:30:42.636Z,29.12
2023-06-26T12:32:47.288Z,29.25
2023-06-26T12:34:55.539Z,29.11
2023-06-26T12:37:35.079Z,28.99
2023-06-26T12:44:05.201Z,29.69
2023-06-26T12:50:29.212Z,31.88
2023-06-26T12:53:31.986Z,32.64
2023-06-26T12:56:29.884Z,33.42
2023-06-26T13:01:51.224Z,34.31
2023-06-26T13:11:31.666Z,34.38
2023-06-26T13:14:30.461Z,34.37
2023-06-26T13:16:33.186Z,34.02
2023-06-26T13:18:35.888Z,34.33
2023-06-26T13:20:40.827Z,33.92
2023-06-26T13:22:43.744Z,35.10
2023-06-26T13:24:47.290Z,34.94
2023-06-26T13:26:51.353Z,34.23
2023-06-26T13:28:54.801Z,34.68
2023-06-26T13:30:57.472Z,34.10
2023-06-26T13:33:00.282Z,33.87
2023-06-26T13:35:03.244Z,33.92
2023-06-26T13:37:07.531Z,33.34
2023-06-26T13:39:10.227Z,33.30
2023-06-26T13:41:12.973Z,33.20
2023-06-26T13:43:17.011Z,33.65
2023-06-26T13:47:29.190Z,33.23
2023-06-26T13:49:31.799Z,32.96
2023-06-26T13:51:34.384Z,33.15
2023-06-26T13:53:36.975Z,32.73
2023-06-26T13:55:39.942Z,32.25
2023-06-26T13:57:43.600Z,32.01
2023-06-26T13:59:48.670Z,31.93
2023-06-26T14:01:51.522Z,32.13
2023-06-26T14:03:54.177Z,32.12
2023-06-26T14:05:56.833Z,31.97
2023-06-26T14:07:59.885Z,32.20
2023-06-26T14:10:02.717Z,32.22
2023-06-26T14:12:06.159Z,32.11
2023-06-26T14:14:08.781Z,32.09
2023-06-26T14:16:12.803Z,32.43
2023-06-26T14:18:15.613Z,32.24
2023-06-26T14:20:19.558Z,32.14
2023-06-26T14:22:22.251Z,32.56
2023-06-26T14:24:24.915Z,32.60
2023-06-26T14:26:27.644Z,32.32
2023-06-26T14:28:30.264Z,32.43
2023-06-26T14:30:32.917Z,32.25
2023-06-26T14:32:38.661Z,32.42
2023-06-26T14:34:42.045Z,32.38
2023-06-26T14:36:44.684Z,32.84
2023-06-26T14:38:47.445Z,32.60
2023-06-26T14:40:50.494Z,32.47
2023-06-26T14:42:54.121Z,32.79
2023-06-26T14:44:57.110Z,32.45
2023-06-26T14:47:00.186Z,32.47
2023-06-26T14:49:05.585Z,32.42
2023-06-26T14:51:08.211Z,32.27
2023-06-26T14:53:10.881Z,32.36
2023-06-26T14:55:13.606Z,32.29
2023-06-26T14:57:16.917Z,32.28
2023-06-26T14:59:19.574Z,32.28
2023-06-26T15:01:23.265Z,32.34
2023-06-26T15:03:26.321Z,32.29
2023-06-26T15:05:30.470Z,32.22
2023-06-26T15:07:33.112Z,32.37
2023-06-26T15:09:35.797Z,32.32
2023-06-26T15:11:38.513Z,32.38
2023-06-26T15:13:41.094Z,32.48
2023-06-26T15:15:43.710Z,32.64
2023-06-26T15:17:46.452Z,32.63
2023-06-26T15:19:49.562Z,32.53
2023-06-26T15:21:53.572Z,32.58
2023-06-26T15:23:56.230Z,32.69
2023-06-26T15:25:58.846Z,32.60
2023-06-26T15:28:01.464Z,32.48
2023-06-26T15:30:04.533Z,32.50
2023-06-26T15:32:08.132Z,32.48
2023-06-26T15:34:13.668Z,32.66
2023-06-26T15:36:17.199Z,32.84
2023-06-26T15:38:21.164Z,32.63
2023-06-26T15:40:23.773Z,32.50
2023-06-26T15:42:30.028Z,32.43
2023-06-26T15:44:33.594Z,32.49
2023-06-26T15:46:36.607Z,32.24
2023-06-26T15:48:41.600Z,32.21
2023-06-26T15:50:44.763Z,32.23
2023-06-26T15:52:47.781Z,32.13
2023-06-26T15:54:51.742Z,32.05
2023-06-26T15:56:56.741Z,32.09
2023-06-26T15:58:59.444Z,32.23
2023-06-26T16:01:02.600Z,32.14
2023-06-26T16:03:07.945Z,32.03
2023-06-26T16:05:11.106Z,32.02
2023-06-26T16:07:13.920Z,32.06
2023-06-26T16:09:16.625Z,32.03
2023-06-26T16:11:20.799Z,32.01
2023-06-26T16:13:23.399Z,32.02
2023-06-26T16:15:26.040Z,31.83
2023-06-26T16:17:28.685Z,31.76
2023-06-26T16:19:31.372Z,31.61
2023-06-26T16:21:33.956Z,31.52
2023-06-26T16:23:36.582Z,31.31
2023-06-26T16:25:39.384Z,31.21
2023-06-26T16:27:45.066Z,31.32
2023-06-26T16:29:48.499Z,31.07
2023-06-26T16:31:51.227Z,30.82
2023-06-26T16:33:54.522Z,30.72
2023-06-26T16:35:57.192Z,30.52
2023-06-26T16:37:59.807Z,30.39
2023-06-26T16:40:02.402Z,30.28
2023-06-26T16:42:05.506Z,30.23
2023-06-26T16:44:09.471Z,30.11
2023-06-26T16:46:12.106Z,30.11
2023-06-26T16:48:14.948Z,29.98
2023-06-26T16:50:17.860Z,29.89
2023-06-26T16:52:20.589Z,29.81
2023-06-26T16:54:23.305Z,29.70
2023-06-26T16:56:25.907Z,29.71
2023-06-26T16:58:28.568Z,29.87
2023-06-26T17:00:32.509Z,29.77
2023-06-26T17:02:35.310Z,29.76
2023-06-26T17:04:38.067Z,29.76
2023-06-26T17:06:40.665Z,29.86
2023-06-26T17:08:43.298Z,29.92
2023-06-26T17:10:45.945Z,29.95
2023-06-26T17:12:48.770Z,29.96
2023-06-26T17:14:51.365Z,30.01
2023-06-26T17:16:55.512Z,29.94
2023-06-26T17:18:58.173Z,29.87
2023-06-26T17:21:01.242Z,29.85
2023-06-26T17:23:04.306Z,29.84
2023-06-26T17:25:09.445Z,29.69
2023-06-26T17:27:15.289Z,29.57
2023-06-26T17:29:17.960Z,29.54
2023-06-26T17:31:20.660Z,29.50
2023-06-26T17:33:24.762Z,29.43
2023-06-26T17:35:28.449Z,29.41
2023-06-26T17:37:31.068Z,29.31
2023-06-26T17:39:34.178Z,29.28
2023-06-26T17:41:36.833Z,29.28
2023-06-26T17:43:39.502Z,29.20
2023-06-26T17:45:42.276Z,29.23
2023-06-26T17:47:44.958Z,29.17
2023-06-26T17:49:48.939Z,29.17
2023-06-26T17:51:51.712Z,29.17
2023-06-26T17:53:54.324Z,29.16
2023-06-26T17:55:57.017Z,29.24
2023-06-26T17:57:59.783Z,29.22
2023-06-26T18:00:02.470Z,29.21
2023-06-26T18:02:05.476Z,29.13
2023-06-26T18:04:09.087Z,29.09
2023-06-26T18:06:13.455Z,29.10
2023-06-26T18:08:16.092Z,29.10
2023-06-26T18:10:18.721Z,29.10
2023-06-26T18:12:21.450Z,28.98
2023-06-26T18:14:24.040Z,28.93
2023-06-26T18:16:26.862Z,28.83
2023-06-26T18:18:29.505Z,28.79
2023-06-26T18:20:32.088Z,28.73
2023-06-26T18:22:36.080Z,28.72
2023-06-26T18:24:39.366Z,28.67
2023-06-26T18:26:41.985Z,28.63
2023-06-26T18:28:44.747Z,28.58
2023-06-26T18:30:49.930Z,28.49
2023-06-26T18:32:55.211Z,28.43
2023-06-26T18:34:57.851Z,28.40
2023-06-26T18:37:00.478Z,28.33
2023-06-26T18:39:05.545Z,28.28
2023-06-26T18:41:08.297Z,28.24
2023-06-26T18:43:12.031Z,28.22
2023-06-26T18:45:14.952Z,28.19
2023-06-26T18:47:17.824Z,28.12
2023-06-26T18:49:20.439Z,28.05
2023-06-26T18:51:23.446Z,28.01
2023-06-26T18:53:26.350Z,27.94
2023-06-26T18:55:33.078Z,27.93
2023-06-26T18:57:38.427Z,27.84
2023-06-26T18:59:41.040Z,27.78
2023-06-26T19:01:44.994Z,27.70
2023-06-26T19:03:47.709Z,27.62
2023-06-26T19:05:50.333Z,27.52
2023-06-26T19:07:53.833Z,27.48
2023-06-26T19:10:00.437Z,27.40
2023-06-26T19:12:05.038Z,27.32
2023-06-26T19:14:07.688Z,27.29
2023-06-26T19:16:10.406Z,27.25
2023-06-26T19:18:15.073Z,27.22
2023-06-26T19:20:19.538Z,27.16
2023-06-26T19:22:22.461Z,27.11
2023-06-26T19:24:25.092Z,27.07
2023-06-26T19:26:27.951Z,27.02
2023-06-26T19:28:31.935Z,26.97
2023-06-26T19:30:34.761Z,26.93
2023-06-26T19:32:37.644Z,26.85
2023-06-26T19:34:40.355Z,26.87
2023-06-26T19:36:44.432Z,26.83
2023-06-26T19:38:47.037Z,26.76
2023-06-26T19:40:49.707Z,26.66
2023-06-26T19:42:52.398Z,26.61
2023-06-26T19:44:56.320Z,26.57
2023-06-26T19:46:59.669Z,26.57
2023-06-26T19:49:02.316Z,26.63
2023-06-26T19:51:05.293Z,26.57
2023-06-26T19:53:08.509Z,26.46
2023-06-26T19:55:12.367Z,26.44
2023-06-26T19:57:15.381Z,26.37
2023-06-26T19:59:18.038Z,26.33
2023-06-26T20:01:24.049Z,26.27
2023-06-26T20:03:26.799Z,26.23
2023-06-26T20:05:29.442Z,26.14
2023-06-26T20:07:33.039Z,26.23
2023-06-26T20:09:36.004Z,26.09
2023-06-26T20:11:38.705Z,26.06
2023-06-26T20:13:41.325Z,26.04
2023-06-26T20:15:44.172Z,26.02
2023-06-26T20:17:48.257Z,25.98
2023-06-26T20:19:50.888Z,25.92
2023-06-26T20:21:53.516Z,25.90
2023-06-26T20:23:56.111Z,25.89
2023-06-26T20:25:58.717Z,25.91
2023-06-26T20:28:01.458Z,25.91
2023-06-26T20:30:04.190Z,25.88
2023-06-26T20:32:07.399Z,25.89
2023-06-26T20:34:11.441Z,25.86
2023-06-26T20:36:14.035Z,25.87
2023-06-26T20:38:19.240Z,25.90
2023-06-26T20:40:23.115Z,25.87
2023-06-26T20:42:26.119Z,25.87
2023-06-26T20:44:29.214Z,25.86
2023-06-26T20:46:33.907Z,25.88
2023-06-26T20:48:38.362Z,25.88
2023-06-26T20:50:42.876Z,25.91
2023-06-26T20:52:45.942Z,25.89
2023-06-26T20:54:48.935Z,25.85
2023-06-26T20:56:51.565Z,25.85
2023-06-26T20:58:54.179Z,25.84
2023-06-26T21:00:56.848Z,25.80
2023-06-26T21:02:59.707Z,25.79
2023-06-26T21:05:02.424Z,25.79
2023-06-26T21:07:07.987Z,25.76
2023-06-26T21:09:10.667Z,25.73
2023-06-26T21:11:13.243Z,25.63
2023-06-26T21:13:16.012Z,25.64
2023-06-26T21:15:18.699Z,25.55
2023-06-26T21:17:21.344Z,25.57
2023-06-26T21:19:24.127Z,25.48
2023-06-26T21:21:26.753Z,25.39
2023-06-26T21:23:30.754Z,25.35
2023-06-26T21:25:33.438Z,25.34
2023-06-26T21:27:36.340Z,25.29
2023-06-26T21:29:38.957Z,25.26
2023-06-26T21:31:41.571Z,25.30
2023-06-26T21:33:44.201Z,25.22
2023-06-26T21:35:48.198Z,25.16
2023-06-26T21:37:51.464Z,25.12
2023-06-26T21:39:55.420Z,25.06
2023-06-26T21:41:58.124Z,25.01
2023-06-26T21:44:00.801Z,25.00
2023-06-26T21:46:03.542Z,24.95
2023-06-26T21:48:07.321Z,24.93
2023-06-26T21:50:10.834Z,24.89
2023-06-26T21:52:14.004Z,24.84
2023-06-26T21:54:16.723Z,24.81
2023-06-26T21:56:20.735Z,24.77
2023-06-26T21:58:23.939Z,24.72
2023-06-26T22:00:29.438Z,24.66
2023-06-26T22:02:32.047Z,24.61
2023-06-26T22:04:37.286Z,24.57
2023-06-26T22:06:40.432Z,24.50
2023-06-26T22:08:43.141Z,24.47
2023-06-26T22:10:45.829Z,24.44
2023-06-26T22:12:49.913Z,24.43
2023-06-26T22:14:52.549Z,24.38
2023-06-26T22:16:55.119Z,24.35
2023-06-26T22:18:57.745Z,24.34
2023-06-26T22:21:00.381Z,24.27
2023-06-26T22:23:03.188Z,24.24
2023-06-26T22:25:06.567Z,24.21
2023-06-26T22:27:09.301Z,24.20
2023-06-26T22:29:13.655Z,24.20
2023-06-26T22:31:16.322Z,24.18
2023-06-26T22:33:18.993Z,24.15
2023-06-26T22:35:21.722Z,24.12
2023-06-26T22:37:25.405Z,24.11
2023-06-26T22:39:28.027Z,24.10
2023-06-26T22:41:30.623Z,24.10
2023-06-26T22:43:34.552Z,24.07
2023-06-26T22:45:38.789Z,24.03
2023-06-26T22:47:45.534Z,24.00
2023-06-26T22:49:49.839Z,23.99
2023-06-26T22:51:52.637Z,23.99
2023-06-26T22:53:55.295Z,24.01
2023-06-26T22:55:57.859Z,23.97
2023-06-26T22:58:00.487Z,23.95
2023-06-26T23:00:09.695Z,23.89
2023-06-26T23:02:13.844Z,23.86
2023-06-26T23:04:16.558Z,23.85
2023-06-26T23:06:22.635Z,23.82
2023-06-26T23:08:26.220Z,23.81
2023-06-26T23:10:28.975Z,23.77
2023-06-26T23:12:31.851Z,23.75
2023-06-26T23:14:34.518Z,23.73
2023-06-26T23:16:38.346Z,23.70
2023-06-26T23:18:42.402Z,23.63
2023-06-26T23:20:46.279Z,23.61
2023-06-26T23:22:48.917Z,23.58
2023-06-26T23:24:58.427Z,23.54
2023-06-26T23:27:01.888Z,23.53
2023-06-26T23:29:05.235Z,23.53
2023-06-26T23:31:07.893Z,23.52
2023-06-26T23:33:10.535Z,23.51
2023-06-26T23:35:14.756Z,23.49
2023-06-26T23:37:26.618Z,23.48
2023-06-26T23:39:29.424Z,23.44
2023-06-26T23:41:32.840Z,23.43
2023-06-26T23:43:35.436Z,23.42
2023-06-26T23:45:39.162Z,23.41
2023-06-26T23:47:41.907Z,23.40
2023-06-26T23:49:44.496Z,23.38
2023-06-26T23:51:49.853Z,23.39
2023-06-26T23:53:53.387Z,23.36
2023-06-26T23:55:56.001Z,23.34
2023-06-26T23:57:58.698Z,23.29
